Time;durP1;ratioP1;P1;durP2;ratioP2;P2;SDS_P1;SDS_P2;PMS_P1;PMS_P2;Temp;Humidity;BMP_temperature;BMP_pressure;BME280_temperature;BME280_humidity;BME280_pressure;Samples;Min_cycle;Max_cycle;Signal;HPM_P1;HPM_P2
2022/01/24 00:00:15;;;;;;;0.20;0.20;;;2.90;99.90;;;2.37;100.00;101721.06;4833151;29;20248;-80
2022/01/24 00:02:45;;;;;;;0.20;0.20;;;2.80;99.90;;;2.34;100.00;101724.38;4851426;29;20213;-80
2022/01/24 00:05:13;;;;;;;0.20;0.20;;;2.80;99.90;;;2.29;100.00;101727.50;4826004;29;20210;-80
2022/01/24 00:07:41;;;;;;;0.20;0.20;;;2.70;99.90;;;2.24;100.00;101733.34;4841732;29;20225;-80
2022/01/24 00:10:15;;;;;;;0.10;0.10;;;2.70;99.90;;;2.12;100.00;101716.91;4843619;29;20241;-80
2022/01/24 00:12:56;;;;;;;0.20;0.20;;;2.60;99.90;;;1.97;100.00;101708.09;4829746;29;20220;-80
2022/01/24 00:18:24;;;;;;;0.20;0.20;;;2.40;99.90;;;1.69;100.00;101705.44;4864144;29;20213;-80
2022/01/24 00:26:53;;;;;;;0.20;0.20;;;2.20;99.90;;;1.81;100.00;101741.84;4863474;29;20209;-80
2022/01/24 00:29:25;;;;;;;0.60;0.60;;;2.20;99.90;;;1.67;100.00;101729.59;4830952;29;20240;-81
2022/01/24 00:31:55;;;;;;;0.10;0.10;;;2.10;99.90;;;1.61;100.00;101737.94;4831297;29;20217;-79
2022/01/24 00:34:23;;;;;;;0.20;0.20;;;2.10;99.90;;;1.50;100.00;101724.19;4844443;29;20205;-81
2022/01/24 00:36:52;;;;;;;0.20;0.20;;;2.00;99.90;;;1.47;100.00;101731.81;4815815;29;20694;-81
2022/01/24 00:39:23;;;;;;;0.20;0.20;;;2.00;99.90;;;1.44;100.00;101749.88;4829180;29;20229;-80
2022/01/24 00:47:16;;;;;;;0.20;0.20;;;1.80;99.90;;;1.40;100.00;101757.38;4846855;29;20217;-80
2022/01/24 00:52:59;;;;;;;0.20;0.20;;;1.80;99.90;;;1.28;100.00;101750.50;4844330;29;20245;-80
2022/01/24 00:55:28;;;;;;;0.20;0.20;;;1.70;99.90;;;1.29;100.00;101760.13;4844015;29;20209;-80
2022/01/24 00:57:56;;;;;;;0.20;0.20;;;1.70;99.90;;;1.16;100.00;101754.00;4844452;29;20213;-80
2022/01/24 01:00:24;;;;;;;0.20;0.20;;;1.70;99.90;;;1.17;100.00;101763.63;4828974;29;20244;-80
2022/01/24 01:02:52;;;;;;;0.20;0.20;;;1.60;99.90;;;1.16;100.00;101761.81;4860881;29;20214;-80
2022/01/24 01:18:57;;;;;;;0.20;0.20;;;1.30;99.90;;;0.91;100.00;101777.47;4843909;29;20241;-80
2022/01/24 01:21:25;;;;;;;0.20;0.20;;;1.30;99.90;;;0.84;100.00;101772.63;4829135;29;20216;-81
2022/01/24 01:23:57;;;;;;;0.20;0.20;;;1.30;99.90;;;0.72;100.00;101770.09;4824719;29;20216;-80
2022/01/24 01:26:40;;;;;;;0.20;0.20;;;1.20;99.90;;;0.61;100.00;101766.72;4821537;29;20209;-80
2022/01/24 01:29:29;;;;;;;0.20;0.20;;;1.10;99.90;;;0.77;100.00;101802.56;4821929;29;20229;-80
2022/01/24 01:56:08;;;;;;;0.20;0.20;;;0.80;99.90;;;0.37;100.00;101796.25;4829828;29;20212;-80
2022/01/24 01:58:36;;;;;;;0.20;0.20;;;0.80;99.90;;;0.34;100.00;101788.22;4829597;29;20304;-80
2022/01/24 02:01:05;;;;;;;0.20;0.20;;;0.80;99.90;;;0.28;100.00;101796.50;4827053;29;20574;-80
2022/01/24 02:03:34;;;;;;;0.20;0.20;;;0.70;99.90;;;0.28;100.00;101796.50;4834054;29;20571;-80
2022/01/24 02:06:02;;;;;;;0.20;0.20;;;0.70;99.90;;;0.24;100.00;101803.97;4812079;29;20220;-80
2022/01/24 02:08:32;;;;;;;0.20;0.20;;;0.70;99.90;;;0.27;100.00;101815.50;4857487;29;20217;-80
2022/01/24 02:11:20;;;;;;;0.20;0.20;;;0.60;99.90;;;0.28;100.00;101811.19;4844106;29;20231;-80
2022/01/24 02:13:48;;;;;;;0.20;0.20;;;0.60;99.90;;;0.29;100.00;101819.09;4844097;29;20205;-80
2022/01/24 02:16:35;;;;;;;0.20;0.20;;;0.60;99.90;;;0.34;100.00;101822.03;4842757;29;20201;-80
2022/01/24 02:19:19;;;;;;;0.20;0.20;;;0.60;99.90;;;0.40;100.00;101832.00;4830418;29;20237;-80
2022/01/24 02:22:39;;;;;;;0.20;0.20;;;0.60;99.90;;;0.43;100.00;101833.13;4837731;29;20224;-80
2022/01/24 02:24:42;;;;;;;0.20;0.20;;;0.60;99.90;;;0.44;100.00;101832.31;4845221;29;20220;-80
2022/01/24 02:27:11;;;;;;;0.30;0.30;;;0.60;99.90;;;0.39;100.00;101822.38;4840060;29;20602;-80
2022/01/24 02:32:38;;;;;;;0.20;0.20;;;0.70;99.90;;;0.49;100.00;101837.84;4850152;29;20218;-81
2022/01/24 02:35:08;;;;;;;0.20;0.20;;;0.70;99.90;;;0.58;100.00;101848.91;4840822;29;20217;-80
2022/01/24 02:37:36;;;;;;;0.20;0.20;;;0.70;99.90;;;0.60;100.00;101844.72;4826553;29;20220;-80
2022/01/24 02:40:12;;;;;;;0.30;0.30;;;0.70;99.90;;;0.49;100.00;101830.94;4843587;29;20261;-80
2022/01/24 02:48:27;;;;;;;0.75;0.75;;;0.60;99.90;;;0.48;100.00;101842.16;4862782;29;20216;-79
2022/01/24 02:53:51;;;;;;;0.20;0.20;;;0.60;99.90;;;0.50;100.00;101844.88;4838781;29;20213;-79
2022/01/24 02:56:19;;;;;;;0.20;0.20;;;0.60;99.90;;;0.55;100.00;101853.91;4839196;29;20213;-80
2022/01/24 02:58:47;;;;;;;0.20;0.20;;;0.60;99.90;;;0.55;100.00;101844.41;4858474;29;20237;-80
2022/01/24 03:01:15;;;;;;;0.20;0.20;;;0.60;99.90;;;0.47;100.00;101840.34;4818443;29;20217;-80
2022/01/24 03:03:44;;;;;;;0.20;0.20;;;0.60;99.90;;;0.53;100.00;101846.00;4843860;29;20212;-80
2022/01/24 03:06:25;;;;;;;0.20;0.20;;;0.60;99.90;;;0.48;100.00;101836.94;4811635;29;20217;-80
2022/01/24 03:08:53;;;;;;;0.20;0.20;;;0.60;99.90;;;0.46;100.00;101838.53;4855851;29;20236;-80
2022/01/24 03:11:27;;;;;;;0.20;0.20;;;0.70;99.90;;;0.45;100.00;101843.63;4853250;29;20228;-80
2022/01/24 03:13:55;;;;;;;0.20;0.20;;;0.60;99.90;;;0.44;100.00;101840.13;4841518;29;20209;-80
2022/01/24 03:16:24;;;;;;;0.20;0.20;;;0.60;99.90;;;0.38;100.00;101839.69;4812424;29;20209;-80
2022/01/24 03:18:52;;;;;;;0.20;0.20;;;0.60;99.90;;;0.51;100.00;101854.47;4842309;29;20257;-80
2022/01/24 03:21:20;;;;;;;0.20;0.20;;;0.60;99.90;;;0.39;100.00;101836.28;4827925;29;20213;-81
2022/01/24 03:23:48;;;;;;;0.20;0.20;;;0.60;99.90;;;0.42;100.00;101840.81;4842289;29;20220;-81
2022/01/24 03:26:16;;;;;;;0.20;0.20;;;0.60;99.90;;;0.39;100.00;101836.28;4837426;29;20210;-80
2022/01/24 03:28:44;;;;;;;0.20;0.20;;;0.60;99.90;;;0.31;100.00;101822.72;4828075;29;20241;-80
2022/01/24 03:31:12;;;;;;;0.20;0.20;;;0.60;99.90;;;0.32;100.00;101834.03;4829702;29;20233;-80
2022/01/24 03:33:40;;;;;;;0.20;0.20;;;0.50;99.90;;;0.37;100.00;101836.97;4829396;29;20224;-80
2022/01/24 03:36:08;;;;;;;0.20;0.20;;;0.60;99.90;;;0.34;100.00;101826.34;4842990;29;20217;-80
2022/01/24 03:38:36;;;;;;;0.20;0.20;;;0.50;99.90;;;0.26;100.00;101821.50;4825060;29;20213;-80
2022/01/24 03:41:04;;;;;;;0.20;0.20;;;0.50;99.90;;;0.29;100.00;101828.63;4843130;29;20220;-80
2022/01/24 03:43:33;;;;;;;0.20;0.20;;;0.50;99.90;;;0.23;100.00;101825.56;4833059;29;20217;-80
2022/01/24 03:48:47;;;;;;;0.20;0.20;;;0.50;99.90;;;0.23;100.00;101834.28;4846689;29;20234;-80
2022/01/24 03:51:17;;;;;;;0.20;0.20;;;0.50;99.90;;;0.20;100.00;101833.16;4832475;29;20240;-80
2022/01/24 03:53:46;;;;;;;0.20;0.20;;;0.50;99.90;;;0.15;100.00;101818.91;4831134;29;20209;-80
2022/01/24 03:56:15;;;;;;;0.20;0.20;;;0.40;99.90;;;0.19;100.00;101832.25;4857988;29;20209;-80
2022/01/24 03:58:44;;;;;;;0.20;0.20;;;0.40;99.90;;;0.15;100.00;101822.41;4862159;29;20229;-80
2022/01/24 04:01:17;;;;;;;0.20;0.20;;;0.40;99.90;;;0.25;100.00;101840.50;4835535;29;20216;-80
2022/01/24 04:03:45;;;;;;;0.20;0.20;;;0.40;99.90;;;0.26;100.00;101833.59;4840939;29;20213;-79
2022/01/24 04:06:14;;;;;;;0.20;0.20;;;0.50;99.90;;;0.17;100.00;101826.03;4828417;29;20212;-80
2022/01/24 04:08:43;;;;;;;0.20;0.20;;;0.40;99.90;;;0.14;100.00;101822.31;4846698;29;20217;-79
2022/01/24 04:11:12;;;;;;;0.20;0.20;;;0.40;99.90;;;0.23;100.00;101838.56;4828415;29;20654;-80
2022/01/24 04:13:43;;;;;;;0.20;0.20;;;0.40;99.90;;;0.08;100.00;101811.47;4843938;29;20209;-80
2022/01/24 04:16:25;;;;;;;0.20;0.20;;;0.40;99.90;;;0.02;100.00;101811.91;4858295;29;20227;-80
2022/01/24 04:22:01;;;;;;;0.20;0.20;;;0.40;99.90;;;0.02;100.00;101829.22;4904518;29;20211;-83
2022/01/24 04:24:34;;;;;;;0.20;0.20;;;0.30;99.90;;;-0.09;100.00;101816.28;4927575;29;20610;-83
2022/01/24 04:27:02;;;;;;;0.20;0.20;;;0.30;99.90;;;-0.11;100.00;101819.56;4899360;29;20227;-83
2022/01/24 04:29:33;;;;;;;0.20;0.20;;;0.30;99.90;;;-0.16;100.00;101807.94;4886610;29;20262;-83
2022/01/24 04:32:06;;;;;;;0.20;0.20;;;0.20;99.90;;;-0.20;100.00;101814.59;4881104;29;20228;-84
2022/01/24 04:34:34;;;;;;;0.30;0.30;;;0.20;99.90;;;-0.32;100.00;101801.59;4901992;29;20211;-84
2022/01/24 04:37:02;;;;;;;0.20;0.20;;;0.10;99.90;;;-0.18;100.00;101815.63;4898426;29;20215;-84
2022/01/24 04:39:46;;;;;;;0.20;0.20;;;0.10;99.90;;;-0.26;100.00;101806.34;4923670;29;20227;-84
2022/01/24 04:42:23;;;;;;;0.20;0.20;;;0.10;99.90;;;-0.43;100.00;101786.00;4882748;29;20204;-83
2022/01/24 04:47:29;;;;;;;0.20;0.20;;;0.00;99.90;;;-0.32;100.00;101818.91;4875651;29;20219;-84
2022/01/24 04:53:01;;;;;;;0.20;0.20;;;-0.10;99.90;;;-0.43;100.00;101809.38;4901962;29;20234;-84
2022/01/24 04:55:29;;;;;;;0.20;0.20;;;-0.10;99.90;;;-0.49;100.00;101809.84;4873513;29;20207;-84
2022/01/24 04:57:57;;;;;;;0.20;0.20;;;-0.10;99.90;;;-0.55;100.00;101803.28;4864382;29;20211;-84
2022/01/24 05:00:25;;;;;;;0.20;0.20;;;-0.20;99.90;;;-0.71;100.00;101801.22;4885761;29;20230;-84
2022/01/24 05:02:53;;;;;;;0.20;0.20;;;-0.20;99.90;;;-0.73;100.00;101808.00;4880281;29;20216;-84
2022/01/24 05:05:24;;;;;;;0.20;0.20;;;-0.30;99.90;;;-0.61;100.00;101834.00;4892836;29;20207;-84
2022/01/24 05:07:53;;;;;;;0.20;0.20;;;-0.20;99.90;;;-0.47;100.00;101855.03;4893636;29;20249;-84
2022/01/24 05:10:33;;;;;;;0.20;0.20;;;-0.10;99.90;;;-0.61;100.00;101828.78;4904285;29;20250;-84
2022/01/24 05:21:50;;;;;;;0.20;0.20;;;-0.40;99.90;;;-0.84;100.00;101837.44;4899632;29;20212;-84
2022/01/24 05:24:09;;;;;;;0.20;0.20;;;-0.40;99.90;;;-0.72;100.00;101861.75;4883623;29;20214;-84
2022/01/24 05:26:37;;;;;;;0.20;0.20;;;-0.40;99.90;;;-0.77;100.00;101850.09;4888421;29;20211;-83
2022/01/24 05:29:05;;;;;;;0.30;0.30;;;-0.40;99.90;;;-0.82;100.00;101848.84;4888871;29;20239;-84
2022/01/24 05:31:59;;;;;;;0.20;0.20;;;-0.40;99.90;;;-0.80;100.00;101860.25;4896059;29;20215;-84
2022/01/24 05:34:27;;;;;;;0.30;0.30;;;-0.40;99.90;;;-0.85;100.00;101853.81;4884683;29;20211;-84
2022/01/24 05:36:55;;;;;;;0.20;0.20;;;-0.50;99.90;;;-0.85;100.00;101865.09;4891714;29;20226;-84
2022/01/24 05:39:27;;;;;;;0.20;0.20;;;-0.50;99.90;;;-0.84;100.00;101874.69;4880588;29;20235;-83
2022/01/24 05:42:04;;;;;;;0.20;0.20;;;-0.50;99.90;;;-0.86;100.00;101878.88;4880899;29;20212;-84
2022/01/24 05:44:32;;;;;;;0.30;0.30;;;-0.60;99.90;;;-1.03;100.00;101853.28;4887062;29;20206;-83
2022/01/24 05:47:00;;;;;;;0.20;0.20;;;-0.50;99.90;;;-0.95;100.00;101872.06;4902963;29;20219;-83
2022/01/24 05:49:28;;;;;;;0.20;0.20;;;-0.60;99.90;;;-0.95;100.00;101872.06;4869027;29;20232;-83
2022/01/24 05:51:56;;;;;;;0.25;0.25;;;-0.60;99.90;;;-1.00;100.00;101870.00;4888960;29;20207;-82
2022/01/24 05:54:24;;;;;;;0.20;0.20;;;-0.60;99.90;;;-1.05;100.00;101871.34;4885468;29;20208;-83
2022/01/24 05:56:51;;;;;;;0.20;0.20;;;-0.70;99.90;;;-1.07;100.00;101872.91;4888006;29;20669;-84
2022/01/24 05:59:19;;;;;;;0.20;0.20;;;-0.70;99.90;;;-0.85;100.00;101900.56;4857239;29;20240;-83
2022/01/24 06:01:47;;;;;;;0.20;0.20;;;-0.70;99.90;;;-0.85;100.00;101897.97;4874122;29;20212;-83
2022/01/24 06:04:30;;;;;;;0.20;0.20;;;-0.50;99.90;;;-0.92;100.00;101887.88;4878952;29;20218;-82
2022/01/24 06:07:04;;;;;;;0.20;0.20;;;-0.90;99.90;;;-0.90;100.00;101901.88;4881636;29;20212;-83
2022/01/24 06:09:32;;;;;;;0.10;0.10;;;-0.60;99.90;;;-1.06;100.00;101889.41;4883081;29;20243;-82
2022/01/24 06:12:00;;;;;;;0.20;0.20;;;-0.50;99.90;;;-1.07;100.00;101890.19;4893357;29;20231;-82
2022/01/24 06:14:33;;;;;;;0.20;0.20;;;-0.60;99.90;;;-1.09;100.00;101895.25;4882297;29;20676;-82
2022/01/24 06:17:02;;;;;;;0.20;0.20;;;-0.70;99.90;;;-1.02;100.00;101904.44;4906204;29;20204;-82
2022/01/24 06:19:30;;;;;;;0.20;0.20;;;-0.70;99.90;;;-1.06;100.00;101916.28;4906487;29;20258;-82
2022/01/24 06:21:58;;;;;;;0.20;0.20;;;-0.70;99.90;;;-0.84;100.00;101946.53;4878910;29;20235;-82
2022/01/24 06:24:25;;;;;;;0.20;0.20;;;-0.70;99.90;;;-1.01;100.00;101922.72;4902235;29;20566;-82
2022/01/24 06:27:13;;;;;;;0.20;0.20;;;-0.70;99.90;;;-0.95;100.00;101932.69;4882748;29;20222;-82
2022/01/24 06:29:41;;;;;;;0.20;0.20;;;-0.70;99.90;;;-1.06;100.00;101926.66;4874982;29;20239;-82
2022/01/24 06:32:09;;;;;;;0.20;0.20;;;-0.70;99.90;;;-1.03;100.00;101931.19;4910071;29;20211;-82
2022/01/24 06:34:38;;;;;;;0.20;0.20;;;-0.70;99.90;;;-1.12;100.00;101920.97;4891525;29;20227;-83
2022/01/24 06:37:06;;;;;;;0.20;0.20;;;-0.70;99.90;;;-1.12;100.00;101928.78;4873160;29;20196;-83
2022/01/24 06:40:00;;;;;;;1.20;1.20;;;-0.80;99.90;;;-1.18;100.00;101930.88;4888630;29;20658;-83
2022/01/24 06:42:35;;;;;;;0.20;0.20;;;-0.70;99.90;;;-1.20;100.00;101936.72;4896043;29;20203;-82
2022/01/24 06:45:05;;;;;;;0.20;0.20;;;-0.70;99.90;;;-1.12;100.00;101957.31;4902613;29;20226;-83
2022/01/24 06:47:33;;;;;;;0.20;0.20;;;-0.70;99.90;;;-1.18;100.00;101951.66;4911003;29;20207;-83
2022/01/24 06:50:01;;;;;;;0.20;0.20;;;-0.70;99.90;;;-1.24;100.00;101955.44;4870935;29;20243;-83
2022/01/24 06:52:29;;;;;;;0.20;0.20;;;-0.80;99.90;;;-1.34;100.00;101949.47;4877701;29;20605;-82
2022/01/24 06:54:57;;;;;;;0.30;0.30;;;-0.80;99.90;;;-1.33;100.00;101961.66;4894308;29;20208;-83
2022/01/24 06:57:25;;;;;;;0.20;0.20;;;-0.90;99.90;;;-1.24;100.00;101977.13;4895896;29;20204;-83
2022/01/24 06:59:53;;;;;;;0.20;0.20;;;-1.00;99.90;;;-1.38;100.00;101968.19;4893369;29;20224;-83
2022/01/24 07:02:21;;;;;;;0.20;0.20;;;-0.90;99.90;;;-1.39;100.00;101978.44;4916777;29;20219;-83
2022/01/24 07:04:50;;;;;;;0.20;0.20;;;-1.00;99.90;;;-1.42;100.00;101984.28;4902006;29;20211;-83
2022/01/24 07:07:20;;;;;;;0.20;0.20;;;-1.00;99.90;;;-1.44;100.00;101987.53;4901912;29;20690;-82
2022/01/24 07:09:48;;;;;;;0.20;0.20;;;-1.00;99.90;;;-1.42;100.00;101996.34;4879527;29;20232;-83
2022/01/24 07:12:16;;;;;;;0.38;0.38;;;-1.00;99.90;;;-1.02;100.00;102045.56;4901204;29;20218;-83
2022/01/24 07:14:44;;;;;;;0.20;0.20;;;-0.80;99.90;;;-1.24;100.00;102021.22;4916564;29;20235;-82
2022/01/24 07:17:30;;;;;;;0.20;0.20;;;-0.80;99.90;;;-1.32;100.00;102014.47;4905961;29;20200;-82
2022/01/24 07:19:58;;;;;;;0.20;0.20;;;-0.90;99.90;;;-1.14;100.00;102035.88;4901169;29;20224;-82
2022/01/24 07:22:26;;;;;;;0.30;0.30;;;-0.90;99.90;;;-1.35;100.00;102019.41;4902639;29;20204;-82
2022/01/24 07:24:55;;;;;;;0.20;0.20;;;-0.90;99.90;;;-1.20;100.00;102033.69;4908212;29;20207;-83
2022/01/24 07:27:23;;;;;;;0.20;0.20;;;-0.90;99.90;;;-1.02;100.00;102063.72;4892051;29;20204;-83
2022/01/24 07:29:51;;;;;;;0.20;0.20;;;-0.80;99.90;;;-0.99;100.00;102068.25;4897658;29;20235;-83
2022/01/24 07:32:19;;;;;;;0.20;0.20;;;-0.60;99.90;;;-1.01;100.00;102069.84;4898941;29;20234;-82
2022/01/24 07:34:47;;;;;;;0.20;0.20;;;-0.60;99.90;;;-1.15;100.00;102050.53;4904817;29;20220;-81
2022/01/24 07:37:16;;;;;;;0.20;0.20;;;-0.70;99.90;;;-1.04;100.00;102065.31;4882876;29;20216;-82
2022/01/24 07:39:44;;;;;;;0.20;0.20;;;-0.60;99.90;;;-1.27;100.00;102033.97;4916947;29;20223;-81
2022/01/24 07:42:17;;;;;;;0.20;0.20;;;-0.70;99.90;;;-1.10;100.00;102058.69;4901092;29;20214;-82
2022/01/24 07:44:45;;;;;;;0.20;0.20;;;-0.80;99.90;;;-0.91;100.00;102093.16;4877746;29;20204;-81
2022/01/24 07:47:13;;;;;;;0.20;0.20;;;-0.70;99.90;;;-0.76;100.00;102104.78;4911065;29;20354;-81
2022/01/24 07:49:41;;;;;;;0.40;0.40;;;-0.70;99.90;;;-0.70;100.00;102114.78;4882917;29;20247;-81
2022/01/24 07:52:09;;;;;;;2.03;1.92;;;-0.70;99.90;;;-0.86;100.00;102099.63;4894774;29;20675;-81
2022/01/24 07:54:37;;;;;;;0.20;0.20;;;-0.70;99.90;;;-0.92;100.00;102083.56;4915419;29;20224;-81
2022/01/24 07:57:06;;;;;;;0.20;0.20;;;-0.70;99.90;;;-0.96;100.00;102089.28;4902905;29;20215;-81
2022/01/24 07:59:34;;;;;;;0.20;0.20;;;-0.80;99.90;;;-0.92;100.00;102091.34;4902784;29;20223;-81
2022/01/24 08:02:02;;;;;;;0.20;0.20;;;-0.70;99.90;;;-0.86;100.00;102099.63;4889927;29;20218;-81
2022/01/24 08:04:30;;;;;;;0.20;0.20;;;-0.70;99.90;;;-0.63;100.00;102124.88;4886567;29;20219;-81
2022/01/24 08:06:58;;;;;;;0.20;0.20;;;-0.60;99.90;;;-0.48;100.00;102144.31;4879976;29;20207;-81
2022/01/24 08:09:27;;;;;;;0.20;0.20;;;-0.50;99.90;;;-0.49;100.00;102133.78;4906116;29;20235;-80
2022/01/24 08:11:55;;;;;;;0.17;0.17;;;-0.50;99.90;;;-0.39;100.00;102141.53;4886755;29;20219;-81
2022/01/24 08:14:23;;;;;;;0.20;0.20;;;-0.40;99.90;;;-0.30;100.00;102146.56;4898299;29;20227;-81
2022/01/24 08:16:51;;;;;;;0.63;0.63;;;-0.30;99.90;;;-0.23;100.00;102154.97;4882006;29;20219;-81
2022/01/24 08:19:19;;;;;;;0.20;0.20;;;-0.20;99.90;;;-0.24;100.00;102147.03;4919824;29;20227;-81
2022/01/24 08:21:54;;;;;;;0.20;0.20;;;-0.20;99.90;;;-0.25;100.00;102133.13;4876502;29;20207;-81
2022/01/24 08:24:23;;;;;;;0.20;0.20;;;-0.10;99.90;;;-0.26;100.00;102131.31;4887206;29;20210;-81
2022/01/24 08:26:51;;;;;;;0.20;0.20;;;-0.10;99.90;;;-0.15;100.00;102150.38;4861234;29;20255;-81
2022/01/24 08:29:20;;;;;;;0.20;0.20;;;-0.10;99.90;;;-0.04;100.00;102158.22;4881803;29;20239;-81
2022/01/24 08:31:48;;;;;;;0.17;0.17;;;0.00;99.90;;;0.16;100.00;102165.03;4909009;29;20680;-81
2022/01/24 08:34:16;;;;;;;0.20;0.20;;;0.10;99.90;;;0.21;100.00;102158.50;4905553;29;20239;-81
2022/01/24 08:36:45;;;;;;;0.20;0.20;;;0.20;99.90;;;0.23;100.00;102150.81;4907280;29;20215;-81
2022/01/24 08:39:13;;;;;;;0.20;0.20;;;0.30;99.90;;;0.27;100.00;102160.66;4920885;29;20227;-81
2022/01/24 08:41:59;;;;;;;0.20;0.20;;;0.30;99.90;;;0.39;100.00;102159.00;4894711;29;20212;-81
2022/01/24 08:47:14;;;;;;;0.20;0.20;;;0.50;99.90;;;0.47;100.00;102157.91;4897209;29;20211;-79
2022/01/24 08:50:05;;;;;;;0.10;0.10;;;0.50;99.90;;;0.54;100.00;102154.06;4915680;29;20246;-81
2022/01/24 08:52:33;;;;;;;0.20;0.20;;;0.60;99.90;;;0.43;100.00;102142.84;4900006;29;20212;-81
2022/01/24 08:55:17;;;;;;;0.20;0.20;;;0.70;99.90;;;0.62;100.00;102152.94;4897798;29;20226;-81
2022/01/24 08:57:45;;;;;;;0.20;0.20;;;0.80;99.90;;;0.78;100.00;102165.44;4925846;29;20211;-82
2022/01/24 09:00:14;;;;;;;0.10;0.10;;;0.90;99.90;;;0.76;100.00;102151.41;4913163;29;20223;-82
2022/01/24 09:02:42;;;;;;;1.15;1.15;;;0.90;99.90;;;0.88;100.00;102163.63;4910450;29;20206;-81
2022/01/24 09:05:14;;;;;;;0.20;0.20;;;1.00;99.90;;;0.90;100.00;102155.94;4908426;29;20208;-82
2022/01/24 09:07:43;;;;;;;0.20;0.20;;;1.00;99.90;;;0.93;100.00;102150.97;4894423;29;20204;-80
2022/01/24 09:10:11;;;;;;;0.17;0.17;;;1.10;99.90;;;1.08;100.00;102166.81;4901070;29;20228;-81
2022/01/24 09:12:40;;;;;;;0.20;0.20;;;1.10;99.90;;;1.14;100.00;102156.88;4891366;29;20207;-82
2022/01/24 09:15:08;;;;;;;0.20;0.20;;;1.20;99.90;;;1.12;100.00;102143.72;4904472;29;20689;-82
2022/01/24 09:17:38;;;;;;;0.20;0.20;;;1.40;99.90;;;1.32;100.00;102166.06;4909903;29;20212;-82
2022/01/24 09:20:07;;;;;;;0.20;0.20;;;1.40;99.90;;;1.38;100.00;102163.00;4907043;29;20532;-82
2022/01/24 09:22:48;;;;;;;0.28;0.28;;;1.50;99.90;;;1.46;100.00;102157.56;4885406;29;20222;-81
2022/01/24 09:25:19;;;;;;;0.20;0.20;;;1.50;99.90;;;1.52;100.00;102157.09;4910839;29;20703;-82
2022/01/24 09:27:48;;;;;;;0.30;0.30;;;1.60;99.90;;;1.53;100.00;102148.47;4890409;29;20236;-82
2022/01/24 09:30:20;;;;;;;0.20;0.20;;;1.70;99.90;;;1.65;100.00;102161.50;4887683;29;20230;-82
2022/01/24 09:32:49;;;;;;;0.20;0.20;;;1.80;99.90;;;1.84;100.00;102170.75;4909834;29;20708;-82
2022/01/24 09:35:18;;;;;;;0.20;0.20;;;1.90;99.90;;;1.76;100.00;102152.75;4895486;29;20220;-81
2022/01/24 09:37:47;;;;;;;0.20;0.20;;;1.90;99.90;;;1.96;100.00;102170.72;4892044;29;20215;-82
2022/01/24 09:40:17;;;;;;;1.08;1.08;;;2.00;99.90;;;2.07;100.00;102151.50;4905483;29;20254;-82
2022/01/24 09:42:47;;;;;;;0.20;0.20;;;2.00;99.90;;;2.10;100.00;102146.50;4903048;29;20208;-81
2022/01/24 09:45:17;;;;;;;0.20;0.20;;;2.10;99.90;;;2.31;100.00;102156.63;4894139;29;20226;-82
2022/01/24 09:47:46;;;;;;;0.20;0.20;;;2.10;99.90;;;2.40;100.00;102152.03;4912213;29;20211;-82
2022/01/24 09:50:16;;;;;;;0.20;0.20;;;2.30;99.90;;;2.40;100.00;102139.91;4903598;29;20231;-82
2022/01/24 09:52:46;;;;;;;0.17;0.17;;;2.40;99.90;;;2.53;100.00;102152.09;4910039;29;20218;-83
2022/01/24 09:55:18;;;;;;;0.20;0.20;;;2.40;99.90;;;2.52;100.00;102143.34;4906008;29;20224;-82
2022/01/24 09:57:47;;;;;;;0.20;0.20;;;2.40;99.90;;;2.71;100.00;102152.47;4875779;29;20219;-82
2022/01/24 10:00:20;;;;;;;0.10;0.10;;;2.60;99.90;;;2.84;100.00;102144.66;4884136;29;20231;-82
2022/01/24 10:02:50;;;;;;;0.20;0.20;;;2.70;99.90;;;2.83;100.00;102121.94;4892891;29;20206;-82
2022/01/24 10:05:34;;;;;;;0.10;0.10;;;2.80;99.90;;;2.98;100.00;102124.66;4898832;29;20218;-81
2022/01/24 10:08:26;;;;;;;0.20;0.20;;;2.80;99.90;;;3.01;100.00;102119.66;4920043;29;20222;-82
2022/01/24 10:11:01;;;;;;;0.20;0.20;;;2.90;99.90;;;3.23;100.00;102125.47;4909690;29;20216;-82
2022/01/24 10:19:10;;;;;;;0.20;0.20;;;3.30;99.90;;;3.36;100.00;102088.88;4900790;29;20613;-82
2022/01/24 10:22:02;;;;;;;0.15;0.15;;;3.30;99.90;;;3.53;100.00;102079.47;4918749;29;20222;-83
2022/01/24 10:24:44;;;;;;;0.30;0.30;;;3.40;99.90;;;3.62;100.00;102079.16;4905530;29;20202;-83
2022/01/24 10:27:21;;;;;;;0.20;0.20;;;3.50;99.90;;;3.52;100.00;102049.78;4901000;29;20204;-83
2022/01/24 10:29:58;;;;;;;0.20;0.20;;;3.50;99.90;;;3.70;100.00;102065.75;4926196;29;20227;-82
2022/01/24 10:32:55;;;;;;;0.20;0.20;;;3.60;99.90;;;3.77;100.00;102044.38;4874217;29;20207;-83
2022/01/24 10:35:42;;;;;;;0.20;0.20;;;3.60;99.90;;;3.68;100.00;102019.38;4910354;29;20241;-83
2022/01/24 10:41:50;;;;;;;0.20;0.20;;;3.70;99.90;;;3.62;100.00;102000.66;4915125;29;20228;-82
2022/01/24 10:43:56;;;;;;;0.20;0.20;;;3.70;99.90;;;3.66;100.00;102002.66;4892956;29;20210;-83
2022/01/24 10:46:44;;;;;;;0.20;0.20;;;3.70;99.90;;;3.67;100.00;101996.63;4906569;29;20237;-83
2022/01/24 10:49:15;;;;;;;0.20;0.20;;;3.70;99.90;;;3.76;100.00;102002.41;4871214;29;20223;-82
2022/01/24 10:51:47;;;;;;;0.20;0.20;;;3.80;99.90;;;3.81;100.00;101990.50;4909303;29;20207;-82
2022/01/24 10:54:17;;;;;;;0.17;0.17;;;3.80;99.90;;;3.83;100.00;101997.66;4884139;29;20210;-83
2022/01/24 10:56:46;;;;;;;0.20;0.20;;;3.90;99.90;;;3.91;100.00;101984.16;4897872;29;20208;-83
2022/01/24 10:59:24;;;;;;;0.20;0.20;;;4.00;99.90;;;4.01;100.00;101991.75;4894426;29;20696;-83
2022/01/24 11:02:04;;;;;;;0.20;0.20;;;4.00;99.90;;;4.18;100.00;102006.75;4911513;29;20200;-83
2022/01/24 11:04:34;;;;;;;0.20;0.20;;;4.10;99.90;;;4.13;100.00;101984.63;4889372;29;20210;-83
2022/01/24 11:07:05;;;;;;;0.10;0.10;;;4.20;99.90;;;4.29;100.00;102002.16;4893645;29;20211;-83
2022/01/24 11:09:41;;;;;;;0.20;0.20;;;4.30;99.90;;;4.38;100.00;101994.84;4899478;29;20227;-83
2022/01/24 11:12:12;;;;;;;0.20;0.20;;;4.40;99.90;;;4.35;100.00;101977.22;4886071;29;20203;-82
2022/01/24 11:14:45;;;;;;;0.13;0.13;;;4.40;99.90;;;4.42;100.00;101960.16;4889032;29;20223;-83
2022/01/24 11:17:21;;;;;;;0.20;0.20;;;4.50;99.90;;;4.65;100.00;101979.81;4884972;29;20562;-83
2022/01/24 11:19:56;;;;;;;0.20;0.20;;;4.60;99.90;;;4.55;100.00;101938.19;4902742;29;20230;-82
2022/01/24 11:22:28;;;;;;;0.20;0.20;;;4.60;99.90;;;4.81;100.00;101946.69;4880934;29;20222;-82
2022/01/24 11:25:03;;;;;;;0.20;0.20;;;4.80;99.90;;;4.77;100.00;101925.47;4882352;29;20211;-81
2022/01/24 11:27:39;;;;;;;0.10;0.10;;;4.80;99.90;;;5.17;100.00;101948.66;4875063;29;20218;-82
2022/01/24 11:30:12;;;;;;;0.20;0.20;;;5.00;99.90;;;5.40;100.00;101950.84;4883999;29;20238;-82
2022/01/24 11:32:48;;;;;;;0.17;0.17;;;5.20;99.90;;;5.69;100.00;101937.53;4880802;29;20216;-83
2022/01/24 11:35:45;;;;;;;0.17;0.17;;;5.40;99.90;;;5.99;100.00;101932.13;4879025;29;20227;-81
2022/01/24 11:38:27;;;;;;;0.20;0.20;;;5.70;99.90;;;6.02;100.00;101909.53;4881767;29;20203;-82
2022/01/24 11:41:25;;;;;;;0.10;0.10;;;5.90;99.90;;;6.01;100.00;101893.69;4901244;29;20206;-82
2022/01/24 11:43:59;;;;;;;0.20;0.20;;;6.00;99.90;;;6.39;100.00;101927.16;4869738;29;20208;-82
2022/01/24 11:46:55;;;;;;;0.10;0.10;;;6.20;99.90;;;5.94;100.00;101833.81;4891288;29;20688;-82
2022/01/24 11:49:36;;;;;;;0.10;0.10;;;6.10;99.90;;;6.35;100.00;101877.88;4895510;29;20234;-82
2022/01/24 11:52:10;;;;;;;0.15;0.15;;;6.30;99.90;;;6.16;100.00;101814.78;4895700;29;20227;-82
2022/01/24 11:58:06;;;;;;;0.20;0.20;;;6.40;99.90;;;5.87;100.00;101751.19;4894285;29;20683;-82
2022/01/24 12:00:44;;;;;;;0.10;0.10;;;6.20;99.90;;;5.77;100.00;101749.84;4906822;29;20235;-83
2022/01/24 12:03:23;;;;;;;0.10;0.10;;;6.10;99.90;;;5.87;100.00;101760.78;4888308;29;20215;-82
2022/01/24 12:06:14;;;;;;;0.20;0.20;;;6.10;99.90;;;6.29;100.00;101833.81;4928043;23;20230;-82
2022/01/24 12:09:07;;;;;;;0.20;0.20;;;6.20;99.90;;;6.05;100.00;101751.22;4910512;29;20295;-82
2022/01/24 12:11:37;;;;;;;0.10;0.10;;;6.40;99.90;;;6.45;100.00;101818.81;4902226;29;20225;-82
2022/01/24 12:14:37;;;;;;;0.10;0.10;;;6.40;99.90;;;6.00;100.00;101726.47;4904293;29;20211;-83
2022/01/24 12:17:10;;;;;;;0.10;0.10;;;6.50;99.90;;;5.80;100.00;101704.47;4917205;29;20236;-83